Time;durP1;ratioP1;P1;durP2;ratioP2;P2;SDS_P1;SDS_P2;PMS_P1;PMS_P2;Temp;Humidity;BMP_temperature;BMP_pressure;BME280_temperature;BME280_humidity;BME280_pressure;Samples;Min_cycle;Max_cycle;Signal;HPM_P1;HPM_P2
2022/06/01 00:02:15;;;;;;;;;;;10.60;99.90;;;;;;4966270;28;20030;-70
2022/06/01 00:04:40;;;;;;;;;;;10.20;99.90;;;;;;4953417;28;19976;-69
2022/06/01 00:07:06;;;;;;;;;;;10.20;99.90;;;;;;4968867;28;19934;-70
2022/06/01 00:09:32;;;;;;;;;;;10.10;99.90;;;;;;4985228;28;19926;-70
2022/06/01 00:11:57;;;;;;;;;;;10.20;99.90;;;;;;4969343;28;19968;-70
2022/06/01 00:14:23;;;;;;;;;;;10.10;99.90;;;;;;4970568;28;19929;-70
2022/06/01 00:16:52;;;;;;;;;;;10.10;99.90;;;;;;4966101;28;19926;-70
2022/06/01 00:19:18;;;;;;;;;;;10.10;99.90;;;;;;4953733;28;19961;-69
2022/06/01 00:24:27;;;;;;;;;;;9.90;99.90;;;;;;4965872;28;20298;-69
2022/06/01 00:26:53;;;;;;;;;;;10.20;99.90;;;;;;4969813;28;19926;-70
2022/06/01 00:29:19;;;;;;;;;;;10.20;99.90;;;;;;4968097;28;20305;-70
2022/06/01 00:31:44;;;;;;;;;;;10.20;99.90;;;;;;4967740;28;19922;-70
2022/06/01 00:34:10;;;;;;;;;;;10.20;99.90;;;;;;4964111;28;20216;-70
2022/06/01 00:36:35;;;;;;;;;;;10.40;99.90;;;;;;4967908;28;19929;-70
2022/06/01 00:39:01;;;;;;;;;;;10.60;99.90;;;;;;4965971;28;20008;-70
2022/06/01 00:41:29;;;;;;;;;;;10.30;99.90;;;;;;4983031;28;20276;-71
2022/06/01 00:43:54;;;;;;;;;;;10.60;99.90;;;;;;4967164;28;20470;-70
2022/06/01 00:46:20;;;;;;;;;;;10.30;99.90;;;;;;4968266;28;19937;-69
2022/06/01 00:48:48;;;;;;;;;;;10.20;99.90;;;;;;4984041;28;20017;-70
2022/06/01 00:51:15;;;;;;;;;;;10.20;99.90;;;;;;4968571;28;19926;-70
2022/06/01 00:53:43;;;;;;;;;;;10.20;99.90;;;;;;4984501;28;20334;-70
2022/06/01 00:56:15;;;;;;;;;;;10.20;99.90;;;;;;4983865;28;19933;-70
2022/06/01 00:58:43;;;;;;;;;;;10.20;99.90;;;;;;4968397;28;19984;-70
2022/06/01 01:01:13;;;;;;;;;;;10.20;99.90;;;;;;4951007;28;20461;-70
2022/06/01 01:03:40;;;;;;;;;;;10.20;99.90;;;;;;4964278;28;20374;-70
2022/06/01 01:06:10;;;;;;;;;;;10.70;99.90;;;;;;4966215;28;19930;-70
2022/06/01 01:08:35;;;;;;;;;;;10.10;99.90;;;;;;4967466;28;19922;-70
2022/06/01 01:11:01;;;;;;;;;;;10.20;99.90;;;;;;4967349;28;20672;-70
2022/06/01 01:13:26;;;;;;;;;;;10.20;99.90;;;;;;4968371;28;20017;-70
2022/06/01 01:15:54;;;;;;;;;;;10.10;99.90;;;;;;4964638;28;19926;-70
2022/06/01 01:18:28;;;;;;;;;;;10.10;99.90;;;;;;4966892;28;20418;-70
2022/06/01 01:20:57;;;;;;;;;;;10.20;99.90;;;;;;4966491;28;20299;-70
2022/06/01 01:23:22;;;;;;;;;;;10.20;99.90;;;;;;4983784;28;20065;-70
2022/06/01 01:25:48;;;;;;;;;;;10.20;99.90;;;;;;4964958;28;20020;-70
2022/06/01 01:28:14;;;;;;;;;;;10.20;99.90;;;;;;4967591;28;20390;-70
2022/06/01 01:30:47;;;;;;;;;;;10.20;99.90;;;;;;4967044;28;19922;-70
2022/06/01 01:33:14;;;;;;;;;;;10.20;99.90;;;;;;4963777;28;19922;-70
2022/06/01 01:35:41;;;;;;;;;;;10.20;99.90;;;;;;4950432;28;19922;-71
2022/06/01 01:38:16;;;;;;;;;;;10.20;99.90;;;;;;4951643;28;20371;-70
2022/06/01 01:40:41;;;;;;;;;;;10.20;99.90;;;;;;4968683;28;19933;-70
2022/06/01 01:43:08;;;;;;;;;;;10.20;99.90;;;;;;4968622;28;20016;-70
2022/06/01 01:45:35;;;;;;;;;;;10.20;99.90;;;;;;4982425;28;20046;-70
2022/06/01 01:48:00;;;;;;;;;;;10.20;99.90;;;;;;4968290;28;19949;-70
2022/06/01 01:50:26;;;;;;;;;;;10.20;99.90;;;;;;4966151;28;19926;-70
2022/06/01 01:52:52;;;;;;;;;;;10.20;99.90;;;;;;4966193;28;19926;-70
2022/06/01 01:55:28;;;;;;;;;;;10.20;99.90;;;;;;4965494;28;19942;-70
2022/06/01 01:58:12;;;;;;;;;;;10.30;99.90;;;;;;4967790;28;20076;-70
2022/06/01 02:00:47;;;;;;;;;;;10.30;99.90;;;;;;4966027;28;19922;-70
2022/06/01 02:03:23;;;;;;;;;;;10.30;99.90;;;;;;4966869;28;19929;-70
2022/06/01 02:06:11;;;;;;;;;;;10.30;99.90;;;;;;4965510;28;19930;-70
2022/06/01 02:08:41;;;;;;;;;;;10.30;99.90;;;;;;4964737;28;20319;-70
2022/06/01 02:13:58;;;;;;;;;;;10.20;99.90;;;;;;4964912;28;20016;-70
2022/06/01 02:16:25;;;;;;;;;;;10.20;99.90;;;;;;4965785;28;20422;-70
2022/06/01 02:18:53;;;;;;;;;;;10.20;99.90;;;;;;4967395;28;19930;-70
2022/06/01 02:21:20;;;;;;;;;;;10.10;99.90;;;;;;4967967;28;19926;-70
2022/06/01 02:23:48;;;;;;;;;;;10.10;99.90;;;;;;4983802;28;20005;-70
2022/06/01 02:26:14;;;;;;;;;;;10.10;99.90;;;;;;4969596;28;20346;-70
2022/06/01 02:28:41;;;;;;;;;;;10.10;99.90;;;;;;4970376;28;19968;-70
2022/06/01 02:31:07;;;;;;;;;;;10.10;99.90;;;;;;4952539;28;19948;-70
2022/06/01 02:33:35;;;;;;;;;;;10.00;99.90;;;;;;4969978;28;20394;-70
2022/06/01 02:36:02;;;;;;;;;;;10.00;99.90;;;;;;4966873;28;19981;-70
2022/06/01 02:38:36;;;;;;;;;;;9.90;99.90;;;;;;4969787;28;20612;-70
2022/06/01 02:41:02;;;;;;;;;;;9.90;99.90;;;;;;4972594;28;19926;-70
2022/06/01 02:43:27;;;;;;;;;;;9.90;99.90;;;;;;4970469;28;20358;-70
2022/06/01 02:45:53;;;;;;;;;;;9.90;99.90;;;;;;4971710;28;19922;-70
2022/06/01 02:48:19;;;;;;;;;;;9.80;99.90;;;;;;4969289;28;20009;-70
2022/06/01 02:50:45;;;;;;;;;;;9.80;99.90;;;;;;4970532;28;19922;-69
2022/06/01 02:53:10;;;;;;;;;;;9.80;99.90;;;;;;4970655;28;19933;-69
2022/06/01 02:55:36;;;;;;;;;;;9.80;99.90;;;;;;4970271;28;20004;-70
2022/06/01 02:58:02;;;;;;;;;;;9.70;99.90;;;;;;4969752;28;19930;-69
2022/06/01 03:00:30;;;;;;;;;;;10.30;99.90;;;;;;4969589;28;19928;-69
2022/06/01 03:02:57;;;;;;;;;;;9.70;99.90;;;;;;4969185;28;19977;-69
2022/06/01 03:05:24;;;;;;;;;;;9.70;99.90;;;;;;4968098;28;20375;-70
2022/06/01 03:07:50;;;;;;;;;;;9.70;99.90;;;;;;4965339;28;19937;-69
2022/06/01 03:10:16;;;;;;;;;;;10.10;99.90;;;;;;4969319;28;19921;-70
2022/06/01 03:12:42;;;;;;;;;;;9.70;99.90;;;;;;4970432;28;19930;-70
2022/06/01 03:15:08;;;;;;;;;;;10.30;99.90;;;;;;4967049;28;20021;-69
2022/06/01 03:17:34;;;;;;;;;;;9.80;99.90;;;;;;4966191;28;19926;-70
2022/06/01 03:20:00;;;;;;;;;;;9.80;99.90;;;;;;4970598;28;19944;-70
2022/06/01 03:22:26;;;;;;;;;;;9.80;99.90;;;;;;4970226;28;20442;-69
2022/06/01 03:24:52;;;;;;;;;;;9.80;99.90;;;;;;4968127;28;19974;-70
2022/06/01 03:27:18;;;;;;;;;;;9.80;99.90;;;;;;4967171;28;19984;-70
2022/06/01 03:29:44;;;;;;;;;;;9.80;99.90;;;;;;4968771;28;20511;-70
2022/06/01 03:32:11;;;;;;;;;;;9.80;99.90;;;;;;4969483;28;19940;-70
2022/06/01 03:34:37;;;;;;;;;;;9.80;99.90;;;;;;4951128;28;19933;-70
2022/06/01 03:37:02;;;;;;;;;;;9.80;99.90;;;;;;4969239;28;19930;-70
2022/06/01 03:39:28;;;;;;;;;;;9.80;99.90;;;;;;4961928;28;19928;-70
2022/06/01 03:41:54;;;;;;;;;;;9.80;99.90;;;;;;4970324;28;19926;-71
2022/06/01 03:47:05;;;;;;;;;;;9.90;99.90;;;;;;4970528;28;19952;-70
2022/06/01 03:49:32;;;;;;;;;;;9.90;99.90;;;;;;4968061;28;19952;-70
2022/06/01 03:51:58;;;;;;;;;;;9.90;99.90;;;;;;4968850;28;19922;-70
2022/06/01 03:54:24;;;;;;;;;;;9.90;99.90;;;;;;4968272;28;19932;-71
2022/06/01 03:56:49;;;;;;;;;;;9.90;99.90;;;;;;4967687;28;19930;-70
2022/06/01 03:59:15;;;;;;;;;;;9.90;99.90;;;;;;4967956;28;20358;-70
2022/06/01 04:01:40;;;;;;;;;;;9.90;99.90;;;;;;4980818;28;19941;-70
2022/06/01 04:04:06;;;;;;;;;;;10.60;99.90;;;;;;4965964;28;19948;-70
2022/06/01 04:06:31;;;;;;;;;;;10.00;99.90;;;;;;4962000;28;19926;-70
2022/06/01 04:08:57;;;;;;;;;;;10.00;99.90;;;;;;4964153;28;19930;-70
2022/06/01 04:11:23;;;;;;;;;;;10.00;99.90;;;;;;4963823;28;20729;-70
2022/06/01 04:13:48;;;;;;;;;;;10.00;99.90;;;;;;4958027;28;19977;-70
2022/06/01 04:16:18;;;;;;;;;;;10.00;99.90;;;;;;4947476;28;19933;-70
2022/06/01 04:18:44;;;;;;;;;;;10.10;99.90;;;;;;4962913;28;19926;-70
2022/06/01 04:21:10;;;;;;;;;;;10.00;99.90;;;;;;4976613;28;19989;-70
2022/06/01 04:23:36;;;;;;;;;;;10.10;99.90;;;;;;4962483;28;19934;-70
2022/06/01 04:26:01;;;;;;;;;;;10.10;99.90;;;;;;4960271;28;20413;-70
2022/06/01 04:28:27;;;;;;;;;;;10.10;99.90;;;;;;4945048;28;19938;-70
2022/06/01 04:30:53;;;;;;;;;;;10.10;99.90;;;;;;4943912;28;19930;-70
2022/06/01 04:33:18;;;;;;;;;;;10.10;99.90;;;;;;4992591;28;20620;-70
2022/06/01 04:35:44;;;;;;;;;;;10.20;99.90;;;;;;4964281;28;20016;-70
2022/06/01 04:38:13;;;;;;;;;;;10.20;99.90;;;;;;4966160;28;20246;-69
2022/06/01 04:40:45;;;;;;;;;;;10.20;99.90;;;;;;4965095;28;20618;-70
2022/06/01 04:43:12;;;;;;;;;;;10.30;99.90;;;;;;4964132;28;19922;-70
2022/06/01 04:45:38;;;;;;;;;;;10.30;99.90;;;;;;4964296;28;20030;-70
2022/06/01 04:48:03;;;;;;;;;;;10.30;99.90;;;;;;4966132;28;20359;-70
2022/06/01 04:50:29;;;;;;;;;;;10.40;99.90;;;;;;4964414;28;19932;-69
2022/06/01 04:52:55;;;;;;;;;;;10.70;99.90;;;;;;4962317;28;19922;-70
2022/06/01 04:55:21;;;;;;;;;;;10.50;99.90;;;;;;4961884;28;19937;-70
2022/06/01 04:57:46;;;;;;;;;;;10.50;99.90;;;;;;4948491;28;19980;-70
2022/06/01 05:00:13;;;;;;;;;;;10.70;99.90;;;;;;4964702;28;19922;-70
2022/06/01 05:02:38;;;;;;;;;;;10.60;99.90;;;;;;4979983;28;20505;-70
2022/06/01 05:05:04;;;;;;;;;;;10.80;99.90;;;;;;4965703;28;20039;-70
2022/06/01 05:07:30;;;;;;;;;;;10.60;99.90;;;;;;4947852;28;19984;-70
2022/06/01 05:09:55;;;;;;;;;;;10.60;99.90;;;;;;4965932;28;19922;-70
2022/06/01 05:12:21;;;;;;;;;;;10.60;99.90;;;;;;4965415;28;20718;-70
2022/06/01 05:14:46;;;;;;;;;;;10.60;99.90;;;;;;4962631;28;19925;-70
2022/06/01 05:17:12;;;;;;;;;;;10.90;99.90;;;;;;4942983;28;19922;-70
2022/06/01 05:19:38;;;;;;;;;;;12.00;99.90;;;;;;4964189;28;20303;-70
2022/06/01 05:22:03;;;;;;;;;;;13.50;99.90;;;;;;4965133;28;20409;-70
2022/06/01 05:24:29;;;;;;;;;;;13.60;99.90;;;;;;4965092;28;20516;-70
2022/06/01 05:26:54;;;;;;;;;;;13.50;99.90;;;;;;4963959;28;19922;-70
2022/06/01 05:29:22;;;;;;;;;;;13.40;99.90;;;;;;4962832;28;19925;-71
2022/06/01 05:31:48;;;;;;;;;;;13.30;99.90;;;;;;4970383;28;19957;-70
2022/06/01 05:34:13;;;;;;;;;;;13.20;99.90;;;;;;4976612;28;20548;-70
2022/06/01 05:36:39;;;;;;;;;;;13.00;99.90;;;;;;4965807;28;19932;-70
2022/06/01 05:39:04;;;;;;;;;;;13.00;99.90;;;;;;4958813;28;20009;-70
2022/06/01 05:41:30;;;;;;;;;;;12.90;99.90;;;;;;4963467;28;19926;-71
2022/06/01 05:43:56;;;;;;;;;;;12.90;99.90;;;;;;4961456;28;19981;-70
2022/06/01 05:46:22;;;;;;;;;;;12.90;99.90;;;;;;4959848;28;19930;-70
2022/06/01 05:48:47;;;;;;;;;;;12.90;99.90;;;;;;4956110;28;21250;-70
2022/06/01 05:51:13;;;;;;;;;;;12.90;99.90;;;;;;4960352;28;19976;-70
2022/06/01 05:53:39;;;;;;;;;;;12.90;99.90;;;;;;4959718;28;20300;-70
2022/06/01 05:56:05;;;;;;;;;;;13.10;99.90;;;;;;4959821;28;19929;-70
2022/06/01 05:58:32;;;;;;;;;;;13.10;99.90;;;;;;4965738;28;19925;-70
2022/06/01 06:01:02;;;;;;;;;;;13.10;99.90;;;;;;4968772;28;19929;-70
2022/06/01 06:03:28;;;;;;;;;;;13.10;99.90;;;;;;4949694;28;20013;-70
2022/06/01 06:06:13;;;;;;;;;;;13.00;99.90;;;;;;4964448;28;20013;-70
2022/06/01 06:08:44;;;;;;;;;;;12.80;99.90;;;;;;4982272;28;20405;-72
2022/06/01 06:11:10;;;;;;;;;;;12.70;99.90;;;;;;4962432;28;20398;-71
2022/06/01 06:13:36;;;;;;;;;;;12.50;99.90;;;;;;4961807;28;19984;-70
2022/06/01 06:16:02;;;;;;;;;;;12.40;99.90;;;;;;4968898;28;19930;-70
2022/06/01 06:18:28;;;;;;;;;;;12.30;99.90;;;;;;4968610;28;20434;-71
2022/06/01 06:20:53;;;;;;;;;;;12.20;99.90;;;;;;4978003;28;20013;-71
2022/06/01 06:23:19;;;;;;;;;;;12.10;99.90;;;;;;4951711;28;19934;-71
2022/06/01 06:25:45;;;;;;;;;;;12.10;99.90;;;;;;4967116;28;19930;-71
2022/06/01 06:28:11;;;;;;;;;;;12.00;99.90;;;;;;4967138;28;19964;-71
2022/06/01 06:30:37;;;;;;;;;;;11.90;99.90;;;;;;4967308;28;19929;-71
2022/06/01 06:33:03;;;;;;;;;;;11.80;99.90;;;;;;4950662;28;20376;-71
2022/06/01 06:35:28;;;;;;;;;;;11.70;99.90;;;;;;4965221;28;19932;-71
2022/06/01 06:37:54;;;;;;;;;;;11.70;99.90;;;;;;4967539;28;19965;-70
2022/06/01 06:40:20;;;;;;;;;;;11.60;99.90;;;;;;4967764;28;19930;-70
2022/06/01 06:42:45;;;;;;;;;;;11.60;99.90;;;;;;4966433;28;19933;-70
2022/06/01 06:45:11;;;;;;;;;;;11.60;99.90;;;;;;4965597;28;20006;-70
2022/06/01 06:47:36;;;;;;;;;;;11.60;99.90;;;;;;4965003;28;19973;-70
2022/06/01 06:50:04;;;;;;;;;;;11.70;99.90;;;;;;4967688;28;19922;-70
2022/06/01 06:52:30;;;;;;;;;;;11.70;99.90;;;;;;4963625;28;20394;-71
2022/06/01 06:54:56;;;;;;;;;;;11.70;99.90;;;;;;4966512;28;19937;-70
2022/06/01 06:57:21;;;;;;;;;;;11.70;99.90;;;;;;4964163;28;20005;-70
2022/06/01 06:59:48;;;;;;;;;;;11.90;99.90;;;;;;4966928;28;19922;-70
2022/06/01 07:02:16;;;;;;;;;;;12.00;99.90;;;;;;4965304;28;20280;-70
2022/06/01 07:04:42;;;;;;;;;;;12.10;99.90;;;;;;4965255;28;20299;-71
2022/06/01 07:07:07;;;;;;;;;;;12.30;99.90;;;;;;4965022;28;20612;-71
2022/06/01 07:09:33;;;;;;;;;;;12.50;99.90;;;;;;4967006;28;19929;-71
2022/06/01 07:11:59;;;;;;;;;;;12.70;99.90;;;;;;4970305;28;19941;-71
2022/06/01 07:14:24;;;;;;;;;;;12.90;99.90;;;;;;4968766;28;19922;-71
2022/06/01 07:16:50;;;;;;;;;;;13.20;99.90;;;;;;4964758;28;19984;-70
2022/06/01 07:19:15;;;;;;;;;;;13.50;99.90;;;;;;4967526;28;19922;-71
2022/06/01 07:21:42;;;;;;;;;;;14.00;99.90;;;;;;4967273;28;20041;-71
2022/06/01 07:24:08;;;;;;;;;;;14.90;99.90;;;;;;4963456;28;19926;-71
2022/06/01 07:26:35;;;;;;;;;;;16.10;99.90;;;;;;4964117;28;20303;-72
2022/06/01 07:29:01;;;;;;;;;;;16.60;99.90;;;;;;4962086;28;19936;-71
2022/06/01 07:31:26;;;;;;;;;;;16.70;99.90;;;;;;4963008;28;19930;-71
2022/06/01 07:33:52;;;;;;;;;;;16.70;99.90;;;;;;4963222;28;19926;-72
2022/06/01 07:36:18;;;;;;;;;;;16.50;99.90;;;;;;4965271;28;19926;-72
2022/06/01 07:44:21;;;;;;;;;;;15.80;99.90;;;;;;4965062;28;20017;-71
2022/06/01 07:46:48;;;;;;;;;;;15.60;99.90;;;;;;4962835;28;20323;-72
2022/06/01 07:49:14;;;;;;;;;;;15.50;99.90;;;;;;4969167;28;19930;-71
2022/06/01 07:51:40;;;;;;;;;;;15.30;99.90;;;;;;4966174;28;20339;-72
2022/06/01 07:54:06;;;;;;;;;;;15.30;99.90;;;;;;4966523;28;19973;-72
2022/06/01 07:56:32;;;;;;;;;;;15.30;99.90;;;;;;4966889;28;19933;-72
2022/06/01 07:58:58;;;;;;;;;;;15.50;99.90;;;;;;4961352;28;19921;-72
2022/06/01 08:01:26;;;;;;;;;;;15.80;99.90;;;;;;4964383;28;19933;-71
2022/06/01 08:03:53;;;;;;;;;;;16.00;99.90;;;;;;4968719;28;19930;-72
2022/06/01 08:06:19;;;;;;;;;;;16.40;99.90;;;;;;4966844;28;20315;-72
2022/06/01 08:08:44;;;;;;;;;;;16.70;99.90;;;;;;4964981;28;19929;-72
2022/06/01 08:11:10;;;;;;;;;;;17.00;99.90;;;;;;4967313;28;19940;-72
2022/06/01 08:13:36;;;;;;;;;;;17.20;99.90;;;;;;4964951;28;20004;-72
2022/06/01 08:16:05;;;;;;;;;;;17.30;99.90;;;;;;4964007;28;20286;-71
2022/06/01 08:18:31;;;;;;;;;;;17.90;99.90;;;;;;4963416;28;20283;-72
2022/06/01 08:20:56;;;;;;;;;;;17.90;99.90;;;;;;4961243;28;19933;-72
2022/06/01 08:23:23;;;;;;;;;;;17.80;99.90;;;;;;4957604;28;20110;-72
2022/06/01 08:25:50;;;;;;;;;;;17.60;99.90;;;;;;4958900;28;19937;-71
2022/06/01 08:28:16;;;;;;;;;;;17.30;99.90;;;;;;4960799;28;19930;-71
2022/06/01 08:30:42;;;;;;;;;;;17.00;99.90;;;;;;4960575;28;19937;-71
2022/06/01 08:33:08;;;;;;;;;;;16.80;99.90;;;;;;4960286;28;19953;-71
2022/06/01 08:35:37;;;;;;;;;;;16.60;99.90;;;;;;4961915;28;19952;-70
2022/06/01 08:38:03;;;;;;;;;;;16.40;99.90;;;;;;4961650;28;19932;-71
2022/06/01 08:40:34;;;;;;;;;;;16.50;99.90;;;;;;4961989;28;19925;-71
2022/06/01 08:43:11;;;;;;;;;;;16.60;99.90;;;;;;4977197;28;19932;-71
2022/06/01 08:45:37;;;;;;;;;;;16.80;99.90;;;;;;4989846;28;19926;-71
2022/06/01 08:48:03;;;;;;;;;;;16.90;99.90;;;;;;4962727;28;19926;-70
2022/06/01 08:50:34;;;;;;;;;;;17.00;99.90;;;;;;4961455;28;19925;-71
2022/06/01 08:53:01;;;;;;;;;;;17.20;99.90;;;;;;4958588;28;19925;-71
2022/06/01 08:55:35;;;;;;;;;;;17.40;99.90;;;;;;4957081;28;20009;-70
2022/06/01 08:58:06;;;;;;;;;;;17.90;99.90;;;;;;4959753;28;19984;-70
2022/06/01 09:00:35;;;;;;;;;;;18.60;99.90;;;;;;4960531;28;19965;-69
2022/06/01 09:03:05;;;;;;;;;;;19.00;99.90;;;;;;4944891;28;19962;-70
2022/06/01 09:05:34;;;;;;;;;;;19.20;99.90;;;;;;4961939;28;19933;-69
2022/06/01 09:08:03;;;;;;;;;;;19.40;99.90;;;;;;4959749;28;19929;-70
2022/06/01 09:10:28;;;;;;;;;;;19.40;99.90;;;;;;4962205;28;20391;-70
2022/06/01 09:13:12;;;;;;;;;;;18.90;99.90;;;;;;4962047;28;19934;-70
2022/06/01 09:15:43;;;;;;;;;;;18.60;99.90;;;;;;4961751;28;19969;-70
2022/06/01 09:18:08;;;;;;;;;;;18.10;99.90;;;;;;4956058;28;19928;-71
2022/06/01 09:23:18;;;;;;;;;;;17.50;99.90;;;;;;4959917;28;19929;-71
2022/06/01 09:25:50;;;;;;;;;;;17.20;99.90;;;;;;4959307;28;19926;-71
2022/06/01 09:28:23;;;;;;;;;;;16.90;99.90;;;;;;4961075;28;19971;-70
2022/06/01 09:31:06;;;;;;;;;;;16.50;99.90;;;;;;4976401;28;19976;-70
2022/06/01 09:33:33;;;;;;;;;;;16.20;99.90;;;;;;4961474;28;19976;-70
2022/06/01 09:35:59;;;;;;;;;;;15.90;99.90;;;;;;4964411;28;20407;-70
2022/06/01 09:38:37;;;;;;;;;;;15.80;99.90;;;;;;4948853;28;19977;-70
2022/06/01 09:41:04;;;;;;;;;;;15.60;99.90;;;;;;4963266;28;21351;-70
2022/06/01 09:43:30;;;;;;;;;;;15.70;99.90;;;;;;4960825;28;19955;-72
2022/06/01 09:45:55;;;;;;;;;;;16.30;99.90;;;;;;4964274;28;19930;-70
2022/06/01 09:48:33;;;;;;;;;;;16.90;99.90;;;;;;4965603;28;19993;-71
2022/06/01 09:51:01;;;;;;;;;;;17.60;99.90;;;;;;4963234;28;20310;-70
2022/06/01 09:53:30;;;;;;;;;;;18.00;99.90;;;;;;4965664;28;19964;-70
2022/06/01 09:55:56;;;;;;;;;;;18.40;99.90;;;;;;4965374;28;19930;-71
2022/06/01 10:06:52;;;;;;;;;;;18.70;99.90;;;;;;4963555;28;19922;-71
2022/06/01 10:09:22;;;;;;;;;;;18.60;99.90;;;;;;4981931;28;20008;-70
2022/06/01 10:11:51;;;;;;;;;;;18.40;99.90;;;;;;4980537;28;19969;-70
2022/06/01 10:14:18;;;;;;;;;;;18.10;99.90;;;;;;4964426;28;20026;-70
2022/06/01 10:16:47;;;;;;;;;;;17.80;99.90;;;;;;4946874;28;19977;-70
2022/06/01 10:19:14;;;;;;;;;;;17.50;99.90;;;;;;4941346;28;21669;-70
2022/06/01 10:21:57;;;;;;;;;;;17.40;99.90;;;;;;4960335;28;19996;-70
2022/06/01 10:24:43;;;;;;;;;;;17.20;99.90;;;;;;4958066;28;19969;-71
2022/06/01 10:27:09;;;;;;;;;;;17.00;99.90;;;;;;4945221;28;20546;-70
2022/06/01 10:29:38;;;;;;;;;;;16.80;99.90;;;;;;4959554;28;19929;-70
2022/06/01 10:32:10;;;;;;;;;;;16.60;99.90;;;;;;4945753;28;19972;-71
2022/06/01 10:34:38;;;;;;;;;;;16.40;99.90;;;;;;4961066;28;19930;-70
2022/06/01 10:37:16;;;;;;;;;;;16.20;99.90;;;;;;4942426;28;20346;-70
2022/06/01 10:39:51;;;;;;;;;;;15.90;99.90;;;;;;4958739;28;19926;-71
2022/06/01 10:42:19;;;;;;;;;;;15.70;99.90;;;;;;4944306;28;19930;-71
2022/06/01 10:44:56;;;;;;;;;;;15.40;99.90;;;;;;4961651;28;19930;-70
2022/06/01 10:47:40;;;;;;;;;;;15.20;99.90;;;;;;4958632;28;20451;-71
2022/06/01 10:50:13;;;;;;;;;;;15.00;99.90;;;;;;4967440;28;20072;-71
2022/06/01 10:52:45;;;;;;;;;;;14.80;99.90;;;;;;4979286;28;19926;-71
2022/06/01 10:55:26;;;;;;;;;;;14.60;99.90;;;;;;4942117;28;19930;-70
2022/06/01 10:57:51;;;;;;;;;;;14.70;99.90;;;;;;4957035;28;19929;-71
2022/06/01 11:00:20;;;;;;;;;;;14.70;99.90;;;;;;4945829;28;19937;-70
2022/06/01 11:03:04;;;;;;;;;;;14.80;99.90;;;;;;4946561;28;19984;-70
2022/06/01 11:05:38;;;;;;;;;;;14.90;99.90;;;;;;4965342;28;20008;-71
2022/06/01 11:08:23;;;;;;;;;;;15.00;99.90;;;;;;4963877;28;20315;-71
2022/06/01 11:10:54;;;;;;;;;;;15.20;99.90;;;;;;4966585;28;20356;-71
2022/06/01 11:13:45;;;;;;;;;;;15.30;99.90;;;;;;4963562;28;19934;-71
2022/06/01 11:16:26;;;;;;;;;;;15.40;99.90;;;;;;4961811;28;19941;-71
2022/06/01 11:19:07;;;;;;;;;;;15.60;99.90;;;;;;4964952;28;20437;-70
2022/06/01 11:21:44;;;;;;;;;;;15.70;99.90;;;;;;4979456;28;19929;-71
2022/06/01 11:24:29;;;;;;;;;;;15.80;99.90;;;;;;4966101;28;19926;-71
2022/06/01 11:27:01;;;;;;;;;;;15.90;99.90;;;;;;4966855;28;19926;-71
2022/06/01 11:29:29;;;;;;;;;;;16.00;99.90;;;;;;4962344;28;20395;-71
2022/06/01 11:31:57;;;;;;;;;;;16.30;99.90;;;;;;4980648;28;19977;-70
2022/06/01 11:34:26;;;;;;;;;;;16.90;99.90;;;;;;4966385;28;19941;-71
2022/06/01 11:37:00;;;;;;;;;;;17.50;99.90;;;;;;4964374;28;19955;-71
2022/06/01 11:39:32;;;;;;;;;;;17.90;99.90;;;;;;4967483;28;20348;-70
2022/06/01 11:42:00;;;;;;;;;;;18.20;99.90;;;;;;4981088;28;19926;-71
2022/06/01 11:44:29;;;;;;;;;;;18.20;99.90;;;;;;4963337;28;20363;-70
2022/06/01 11:46:56;;;;;;;;;;;18.10;99.90;;;;;;4967146;28;19930;-70
2022/06/01 11:49:30;;;;;;;;;;;18.00;99.90;;;;;;4965664;28;20285;-70
2022/06/01 11:52:09;;;;;;;;;;;17.80;99.90;;;;;;4962709;28;19970;-70
2022/06/01 11:54:35;;;;;;;;;;;17.70;99.90;;;;;;4978511;28;20417;-70
2022/06/01 11:57:02;;;;;;;;;;;17.40;99.90;;;;;;4966234;28;19984;-70
2022/06/01 11:59:33;;;;;;;;;;;17.20;99.90;;;;;;4965302;28;19928;-69
2022/06/01 12:02:19;;;;;;;;;;;17.00;99.90;;;;;;4964630;28;19925;-70
2022/06/01 12:04:51;;;;;;;;;;;16.90;99.90;;;;;;4964200;28;19922;-70
2022/06/01 12:07:16;;;;;;;;;;;16.80;99.90;;;;;;4963843;28;20450;-70
2022/06/01 12:09:49;;;;;;;;;;;16.70;99.90;;;;;;4963665;28;19925;-70
2022/06/01 12:12:26;;;;;;;;;;;16.50;99.90;;;;;;4961974;28;19922;-69
2022/06/01 12:14:57;;;;;;;;;;;16.20;99.90;;;;;;4965962;28;20114;-70
2022/06/01 12:17:23;;;;;;;;;;;16.00;99.90;;;;;;4959307;28;20627;-70
2022/06/01 12:20:11;;;;;;;;;;;15.70;99.90;;;;;;4962740;28;20318;-70
2022/06/01 12:28:45;;;;;;;;;;;15.10;99.90;;;;;;4957182;28;19926;-70
2022/06/01 12:31:22;;;;;;;;;;;14.90;99.90;;;;;;4961646;28;19969;-71
2022/06/01 12:34:03;;;;;;;;;;;14.70;99.90;;;;;;4961775;28;19930;-70
2022/06/01 12:36:47;;;;;;;;;;;14.50;99.90;;;;;;4962644;28;19933;-70
2022/06/01 12:39:16;;;;;;;;;;;14.30;99.90;;;;;;4957565;28;19930;-70
2022/06/01 12:41:44;;;;;;;;;;;14.10;99.90;;;;;;4954536;28;19980;-70
2022/06/01 12:44:10;;;;;;;;;;;14.00;99.90;;;;;;4951211;28;19930;-70
2022/06/01 12:46:41;;;;;;;;;;;13.90;99.90;;;;;;4953947;28;19934;-70
2022/06/01 12:49:25;;;;;;;;;;;13.70;99.90;;;;;;4955583;28;19930;-71
2022/06/01 12:51:51;;;;;;;;;;;13.60;99.90;;;;;;4954277;28;19929;-70
2022/06/01 12:54:24;;;;;;;;;;;13.50;99.90;;;;;;4957533;28;20642;-70
2022/06/01 12:56:50;;;;;;;;;;;13.50;99.90;;;;;;4942863;28;19934;-70
2022/06/01 12:59:15;;;;;;;;;;;13.50;99.90;;;;;;4962282;28;21240;-70
2022/06/01 13:01:41;;;;;;;;;;;13.50;99.90;;;;;;4962634;28;19926;-70
2022/06/01 13:04:06;;;;;;;;;;;13.40;99.90;;;;;;4963097;28;19976;-71
2022/06/01 13:06:39;;;;;;;;;;;13.50;99.90;;;;;;4959440;28;19926;-71
2022/06/01 13:09:09;;;;;;;;;;;13.60;99.90;;;;;;4994449;28;20012;-70
2022/06/01 13:11:35;;;;;;;;;;;13.60;99.90;;;;;;4963548;28;19930;-71
2022/06/01 13:14:05;;;;;;;;;;;13.60;99.90;;;;;;4962559;28;19969;-71
2022/06/01 13:16:34;;;;;;;;;;;13.70;99.90;;;;;;4993723;28;19926;-71
2022/06/01 13:19:13;;;;;;;;;;;13.80;99.90;;;;;;4962328;28;19922;-70
2022/06/01 13:21:39;;;;;;;;;;;14.00;99.90;;;;;;4963761;28;20009;-71
2022/06/01 13:24:06;;;;;;;;;;;14.20;99.90;;;;;;4961472;28;19934;-71
2022/06/01 13:26:42;;;;;;;;;;;14.50;99.90;;;;;;4961109;28;19925;-70
2022/06/01 13:29:08;;;;;;;;;;;14.90;99.90;;;;;;4962567;28;19929;-70
2022/06/01 13:31:35;;;;;;;;;;;15.40;99.90;;;;;;4962617;28;20636;-70
2022/06/01 13:34:00;;;;;;;;;;;16.00;99.90;;;;;;4962035;28;19933;-70
2022/06/01 13:36:28;;;;;;;;;;;16.30;99.90;;;;;;4958784;28;19930;-70
2022/06/01 13:39:00;;;;;;;;;;;16.60;99.90;;;;;;4961960;28;20370;-70
2022/06/01 13:41:36;;;;;;;;;;;16.90;99.90;;;;;;4959238;28;19948;-70
2022/06/01 13:44:09;;;;;;;;;;;17.10;99.90;;;;;;4962327;28;20033;-70
2022/06/01 13:46:42;;;;;;;;;;;17.30;99.90;;;;;;4963311;28;19984;-70
2022/06/01 13:49:09;;;;;;;;;;;17.50;99.90;;;;;;4961746;28;20402;-71
2022/06/01 13:51:42;;;;;;;;;;;17.70;99.90;;;;;;4944633;28;19933;-70
2022/06/01 13:54:19;;;;;;;;;;;17.80;99.90;;;;;;4961264;28;19936;-71
2022/06/01 13:56:45;;;;;;;;;;;18.10;99.90;;;;;;4960814;28;19922;-70
2022/06/01 13:59:13;;;;;;;;;;;18.30;99.90;;;;;;4960023;28;20446;-70
2022/06/01 14:01:41;;;;;;;;;;;18.30;99.90;;;;;;4953612;28;20010;-70
2022/06/01 14:04:13;;;;;;;;;;;18.00;99.90;;;;;;4961178;28;20021;-70
2022/06/01 14:06:43;;;;;;;;;;;17.70;99.90;;;;;;4958072;28;19952;-70
2022/06/01 14:09:12;;;;;;;;;;;17.40;99.90;;;;;;4956677;28;20264;-70
2022/06/01 14:11:38;;;;;;;;;;;17.10;99.90;;;;;;4941477;28;19930;-70
2022/06/01 14:14:16;;;;;;;;;;;16.90;99.90;;;;;;4956871;28;20585;-70
2022/06/01 14:16:47;;;;;;;;;;;16.70;99.90;;;;;;4971176;28;19957;-70
2022/06/01 14:19:12;;;;;;;;;;;16.20;99.90;;;;;;4955956;28;19948;-70
2022/06/01 14:21:38;;;;;;;;;;;16.20;99.90;;;;;;4959641;28;19926;-70
2022/06/01 14:24:03;;;;;;;;;;;16.00;99.90;;;;;;4958081;28;20366;-70
2022/06/01 14:29:13;;;;;;;;;;;15.80;99.90;;;;;;4967063;28;20434;-70
2022/06/01 14:31:39;;;;;;;;;;;15.90;99.90;;;;;;4964961;28;19926;-70
2022/06/01 14:34:06;;;;;;;;;;;16.00;99.90;;;;;;4978755;28;19936;-70
2022/06/01 14:36:32;;;;;;;;;;;16.10;99.90;;;;;;4946690;28;19930;-70
2022/06/01 14:38:59;;;;;;;;;;;16.10;99.90;;;;;;4960797;28;19930;-70
2022/06/01 14:41:29;;;;;;;;;;;16.10;99.90;;;;;;4966360;28;20458;-70
2022/06/01 14:43:56;;;;;;;;;;;16.00;99.90;;;;;;4961045;28;19933;-70
2022/06/01 14:46:22;;;;;;;;;;;15.90;99.90;;;;;;4962575;28;19965;-70
2022/06/01 14:48:47;;;;;;;;;;;15.80;99.90;;;;;;4962860;28;20422;-71
2022/06/01 14:51:15;;;;;;;;;;;15.70;99.90;;;;;;4946881;28;19922;-69
2022/06/01 14:53:41;;;;;;;;;;;15.50;99.90;;;;;;4957425;28;19930;-70
2022/06/01 14:56:08;;;;;;;;;;;15.20;99.90;;;;;;4953654;28;19933;-70
2022/06/01 14:58:34;;;;;;;;;;;15.00;99.90;;;;;;4957243;28;19930;-71
2022/06/01 15:01:20;;;;;;;;;;;14.90;99.90;;;;;;4951397;28;19965;-70